createdAt,value
2022-11-24T00:03:40.492Z,99068.53
2022-11-24T00:08:45.117Z,98581.03
2022-11-24T00:13:47.644Z,99087.72
2022-11-24T00:18:51.487Z,99100.47
2022-11-24T00:23:54.029Z,99112.53
2022-11-24T00:29:00.309Z,99111.69
2022-11-24T00:34:04.678Z,99052.16
2022-11-24T00:39:10.238Z,98861.34
2022-11-24T00:44:12.582Z,98969.00
2022-11-24T00:49:14.845Z,98487.28
2022-11-24T00:54:17.129Z,99097.47
2022-11-24T00:59:19.403Z,99025.63
2022-11-24T01:04:21.597Z,99072.19
2022-11-24T01:09:23.899Z,99120.63
2022-11-24T01:14:26.160Z,98794.78
2022-11-24T01:19:28.544Z,99047.50
2022-11-24T01:24:30.933Z,99061.72
2022-11-24T01:29:33.299Z,99112.25
2022-11-24T01:34:35.807Z,99052.69
2022-11-24T01:39:38.132Z,99161.16
2022-11-24T01:44:41.230Z,99155.19
2022-11-24T01:49:55.087Z,99171.41
2022-11-24T01:55:00.046Z,99077.97
2022-11-24T02:00:08.793Z,99180.41
2022-11-24T02:05:34.756Z,99113.78
2022-11-24T02:10:37.618Z,98999.44
2022-11-24T02:15:40.014Z,99136.09
2022-11-24T02:20:42.431Z,99118.09
2022-11-24T02:26:30.321Z,99045.81
2022-11-24T02:31:32.937Z,99111.16
2022-11-24T02:36:35.185Z,99102.66
2022-11-24T02:41:38.072Z,99085.47
2022-11-24T02:46:40.287Z,98513.44
2022-11-24T02:51:42.542Z,99218.28
2022-11-24T02:56:44.753Z,99196.97
2022-11-24T03:01:47.181Z,98958.50
2022-11-24T03:06:49.562Z,99185.13
2022-11-24T03:11:51.828Z,99132.28
2022-11-24T03:16:54.067Z,99169.59
2022-11-24T03:21:56.296Z,99237.44
2022-11-24T03:26:58.711Z,99000.59
2022-11-24T03:32:01.050Z,99153.94
2022-11-24T03:37:03.373Z,99164.16
2022-11-24T03:42:05.799Z,99210.00
2022-11-24T03:47:08.218Z,99185.16
2022-11-24T03:52:10.442Z,99246.41
2022-11-24T03:57:12.876Z,99034.53
2022-11-24T04:02:15.218Z,99056.22
2022-11-24T04:07:18.067Z,99240.31
2022-11-24T04:12:38.725Z,99290.41
2022-11-24T04:17:41.055Z,99204.59
2022-11-24T04:22:43.670Z,99039.81
2022-11-24T04:27:46.334Z,99003.97
2022-11-24T04:32:56.454Z,99290.66
2022-11-24T04:38:02.798Z,99286.19
2022-11-24T04:43:05.052Z,99163.28
2022-11-24T04:48:07.409Z,99051.78
2022-11-24T04:53:10.599Z,99031.13
2022-11-24T04:58:13.135Z,99298.41
2022-11-24T05:03:15.379Z,99231.44
2022-11-24T05:08:17.565Z,99163.34
2022-11-24T05:13:19.825Z,99097.72
2022-11-24T05:18:22.516Z,98921.09
2022-11-24T05:23:24.858Z,99355.16
2022-11-24T05:28:27.502Z,98893.47
2022-11-24T05:33:30.420Z,99327.09
2022-11-24T05:38:33.221Z,98770.00
2022-11-24T05:43:35.488Z,99242.53
2022-11-24T05:48:37.713Z,98791.31
2022-11-24T05:53:39.895Z,99294.28
2022-11-24T05:58:43.314Z,99338.78
2022-11-24T06:03:45.544Z,99405.44
2022-11-24T06:08:47.892Z,99368.78
2022-11-24T06:13:50.180Z,99176.59
2022-11-24T06:18:52.568Z,99373.66
2022-11-24T06:23:54.855Z,99309.19
2022-11-24T06:28:57.259Z,99394.63
2022-11-24T06:34:00.077Z,99184.63
2022-11-24T06:39:02.969Z,99433.88
2022-11-24T06:44:05.601Z,99323.25
2022-11-24T06:49:08.024Z,99420.06
2022-11-24T06:54:14.613Z,99399.69
2022-11-24T06:59:20.966Z,99428.69
2022-11-24T07:04:23.244Z,99258.59
2022-11-24T07:09:25.405Z,99090.31
2022-11-24T07:14:27.533Z,99346.81
2022-11-24T07:19:29.755Z,99261.72
2022-11-24T07:24:32.097Z,99455.88
2022-11-24T07:29:37.562Z,99454.91
2022-11-24T07:34:39.920Z,99276.88
2022-11-24T07:39:42.388Z,99449.88
2022-11-24T07:44:44.696Z,99281.00
2022-11-24T07:49:46.856Z,99364.56
2022-11-24T07:54:49.056Z,99386.50
2022-11-24T07:59:51.253Z,99365.91
2022-11-24T08:04:53.464Z,99355.72
2022-11-24T08:09:55.732Z,99249.91
2022-11-24T08:14:58.107Z,99076.03
2022-11-24T08:20:00.306Z,99336.44
2022-11-24T08:25:02.559Z,99050.47
2022-11-24T08:30:05.614Z,99489.44
2022-11-24T08:35:13.777Z,99180.50
2022-11-24T08:40:17.163Z,99327.28
2022-11-24T08:45:21.422Z,99146.56
2022-11-24T08:50:25.670Z,99243.38
2022-11-24T08:55:27.873Z,99384.97
2022-11-24T09:00:33.270Z,99503.88
2022-11-24T09:05:52.608Z,99167.50
2022-11-24T09:11:00.360Z,99073.13
2022-11-24T09:16:04.807Z,99502.09
2022-11-24T09:21:19.000Z,99168.59
2022-11-24T09:26:23.938Z,99448.13
2022-11-24T09:31:29.765Z,99369.56
2022-11-24T09:36:32.351Z,99539.41
2022-11-24T09:41:50.909Z,99427.59
2022-11-24T09:47:29.764Z,99547.59
2022-11-24T09:52:42.124Z,99542.22
2022-11-24T09:57:44.644Z,99447.84
2022-11-24T10:02:49.627Z,99080.63
2022-11-24T10:08:22.298Z,99527.41
2022-11-24T10:13:41.525Z,99474.47
2022-11-24T10:19:02.029Z,99535.75
2022-11-24T10:24:16.332Z,99556.06
2022-11-24T10:29:41.279Z,99167.84
2022-11-24T10:34:50.822Z,99391.66
2022-11-24T10:40:40.651Z,99427.66
2022-11-24T10:45:40.750Z,99539.84
2022-11-24T10:50:43.443Z,98992.63
2022-11-24T10:55:55.103Z,99578.44
2022-11-24T11:01:03.423Z,99587.72
2022-11-24T11:06:14.150Z,99580.75
2022-11-24T11:11:22.027Z,99585.59
2022-11-24T11:16:27.296Z,99513.50
2022-11-24T11:21:34.681Z,99604.22
2022-11-24T11:26:38.880Z,99580.28
2022-11-24T11:31:41.397Z,99584.63
2022-11-24T11:36:48.558Z,99590.53
2022-11-24T11:41:56.407Z,99543.00
2022-11-24T11:46:59.586Z,99466.78
2022-11-24T11:52:17.024Z,99592.56
2022-11-24T11:57:31.799Z,99579.69
2022-11-24T12:02:39.448Z,99568.50
2022-11-24T12:07:58.440Z,99568.09
2022-11-24T12:13:14.142Z,99617.13
2022-11-24T12:18:59.130Z,98952.72
2022-11-24T12:24:13.593Z,99613.66
2022-11-24T12:29:31.101Z,99609.31
2022-11-24T12:34:52.949Z,99426.50
2022-11-24T12:40:13.358Z,99621.19
2022-11-24T12:45:17.897Z,99596.03
2022-11-24T12:50:22.909Z,99223.56
2022-11-24T12:55:28.161Z,99215.72
2022-11-24T13:00:53.637Z,99465.91
2022-11-24T13:06:11.221Z,99549.38
2022-11-24T13:11:22.669Z,99636.72
2022-11-24T13:16:36.089Z,99598.31
2022-11-24T13:21:43.214Z,99644.97
2022-11-24T13:27:13.045Z,99656.25
2022-11-24T13:32:15.429Z,99667.97
2022-11-24T13:37:33.615Z,99677.13
2022-11-24T13:43:01.608Z,99677.34
2022-11-24T13:48:24.030Z,99492.47
2022-11-24T13:53:56.045Z,99569.44
2022-11-24T13:59:15.821Z,99509.47
2022-11-24T14:04:30.573Z,99695.53
2022-11-24T14:09:36.618Z,99702.44
2022-11-24T14:14:39.086Z,99678.25
2022-11-24T14:19:42.785Z,99587.53
2022-11-24T14:24:47.040Z,99286.03
2022-11-24T14:29:58.089Z,99702.44
2022-11-24T14:35:00.315Z,99707.19
2022-11-24T14:40:02.608Z,99674.44
2022-11-24T14:45:05.525Z,99726.44
2022-11-24T14:50:19.588Z,99731.56
2022-11-24T14:55:30.035Z,99726.56
2022-11-24T15:00:33.084Z,99508.41
2022-11-24T15:05:56.323Z,99612.25
2022-11-24T15:11:02.804Z,99424.84
2022-11-24T15:16:19.668Z,99676.03
2022-11-24T15:21:35.758Z,99747.16
2022-11-24T15:26:41.984Z,99754.53
2022-11-24T15:31:49.345Z,99619.84
2022-11-24T15:36:54.542Z,99569.28
2022-11-24T15:41:56.790Z,99713.75
2022-11-24T15:46:59.100Z,99438.16
2022-11-24T15:52:01.445Z,99770.88
2022-11-24T15:57:03.920Z,99705.38
2022-11-24T16:02:06.242Z,99767.31
2022-11-24T16:07:15.088Z,99517.59
2022-11-24T16:12:17.546Z,99711.94
2022-11-24T16:17:20.041Z,99730.91
2022-11-24T16:22:22.365Z,99656.28
2022-11-24T16:27:24.732Z,99782.88
2022-11-24T16:32:27.077Z,99648.38
2022-11-24T16:37:29.465Z,99699.56
2022-11-24T16:42:32.038Z,99802.41
2022-11-24T16:47:39.686Z,99698.78
2022-11-24T16:52:41.836Z,99708.31
2022-11-24T16:57:44.102Z,99468.59
2022-11-24T17:02:52.597Z,99825.78
2022-11-24T17:07:55.805Z,99400.44
2022-11-24T17:12:58.027Z,99691.69
2022-11-24T17:23:22.557Z,99765.94
2022-11-24T17:28:24.801Z,99729.16
2022-11-24T17:33:28.607Z,99611.06
2022-11-24T17:38:31.490Z,99805.94
2022-11-24T17:43:33.780Z,99839.19
2022-11-24T17:48:36.253Z,99812.63
2022-11-24T17:53:39.398Z,99534.09
2022-11-24T17:58:43.301Z,99793.66
2022-11-24T18:03:48.979Z,99818.13
2022-11-24T18:08:57.352Z,99847.09
2022-11-24T18:14:02.407Z,99705.91
2022-11-24T18:19:10.174Z,99711.50
2022-11-24T18:24:14.117Z,99386.84
2022-11-24T18:29:16.370Z,99797.91
2022-11-24T18:34:19.151Z,99750.13
2022-11-24T18:39:22.437Z,99803.41
2022-11-24T18:44:24.656Z,99605.06
2022-11-24T18:49:26.992Z,99822.78
2022-11-24T18:54:29.402Z,99813.03
2022-11-24T18:59:31.898Z,99877.31
2022-11-24T19:04:34.394Z,99771.72
2022-11-24T19:09:37.040Z,99731.38
2022-11-24T19:14:39.202Z,99820.69
2022-11-24T19:19:41.378Z,99880.19
2022-11-24T19:24:45.407Z,99762.31
2022-11-24T19:29:48.617Z,99591.06
2022-11-24T19:34:50.807Z,99863.28
2022-11-24T19:39:53.240Z,99819.53
2022-11-24T19:44:56.792Z,99842.19
2022-11-24T19:49:59.179Z,99823.47
2022-11-24T19:55:02.366Z,99763.94
2022-11-24T20:00:07.531Z,99860.38
2022-11-24T20:05:09.723Z,99860.28
2022-11-24T20:10:11.944Z,99828.50
2022-11-24T20:15:15.278Z,99818.69
2022-11-24T20:20:17.532Z,99648.22
2022-11-24T20:25:20.514Z,99858.03
2022-11-24T20:30:22.789Z,99857.16
2022-11-24T20:35:24.968Z,99638.28
2022-11-24T20:40:27.676Z,99863.66
2022-11-24T20:45:30.130Z,99518.66
2022-11-24T20:50:32.377Z,99893.91
2022-11-24T20:55:34.865Z,99923.13
2022-11-24T21:00:37.116Z,99944.31
2022-11-24T21:05:39.426Z,99852.41
2022-11-24T21:10:41.651Z,99810.75
2022-11-24T21:15:44.013Z,99940.66
2022-11-24T21:20:46.628Z,99606.03
2022-11-24T21:25:48.813Z,99916.66
2022-11-24T21:30:50.995Z,99934.25
2022-11-24T21:35:53.294Z,99896.75
2022-11-24T21:41:00.441Z,99627.06
2022-11-24T21:46:04.397Z,99928.66
2022-11-24T21:51:11.402Z,99956.41
2022-11-24T21:56:16.287Z,99753.28
2022-11-24T22:01:20.290Z,99952.16
2022-11-24T22:06:23.147Z,99981.47
2022-11-24T22:11:26.092Z,99975.38
2022-11-24T22:16:28.564Z,99885.50
2022-11-24T22:21:31.026Z,99967.31
2022-11-24T22:26:33.407Z,99921.25
2022-11-24T22:31:35.694Z,99933.03
2022-11-24T22:36:38.040Z,99950.75
2022-11-24T22:41:40.199Z,99982.41
2022-11-24T22:46:42.396Z,99930.03
2022-11-24T22:51:44.576Z,99771.25
2022-11-24T22:56:46.868Z,99942.53
2022-11-24T23:01:49.171Z,99950.88
2022-11-24T23:06:51.507Z,99955.53
2022-11-24T23:11:53.682Z,99795.47
2022-11-24T23:16:56.053Z,99724.13
2022-11-24T23:21:58.255Z,99999.06
2022-11-24T23:27:00.510Z,99950.78
2022-11-24T23:32:02.998Z,100008.47
2022-11-24T23:37:05.307Z,99975.59
2022-11-24T23:42:07.702Z,100009.81
2022-11-24T23:47:09.915Z,100022.66
2022-11-24T23:52:12.078Z,99874.19
2022-11-24T23:57:14.264Z,99965.38
